Time;durP1;ratioP1;P1;durP2;ratioP2;P2;SDS_P1;SDS_P2;PMS_P1;PMS_P2;Temp;Humidity;BMP_temperature;BMP_pressure;BME280_temperature;BME280_humidity;BME280_pressure;Samples;Min_cycle;Max_cycle;Signal;HPM_P1;HPM_P2
2020/12/16 00:02:05;;;;;;;45.30;28.70;;;8.80;99.90;;;;;;5057060;28;20044;-70
2020/12/16 00:04:31;;;;;;;54.80;31.83;;;8.80;99.90;;;;;;5062933;28;20044;-71
2020/12/16 00:06:57;;;;;;;48.67;29.95;;;8.80;99.90;;;;;;5062652;28;20050;-72
2020/12/16 00:09:24;;;;;;;56.33;32.47;;;8.80;99.90;;;;;;5063237;28;20123;-71
2020/12/16 00:11:51;;;;;;;59.33;31.70;;;8.90;99.90;;;;;;5062163;28;20052;-70
2020/12/16 00:14:17;;;;;;;74.18;33.72;;;8.80;99.90;;;;;;5046925;28;20139;-70
2020/12/16 00:16:43;;;;;;;61.47;32.72;;;8.60;99.90;;;;;;5045982;28;20057;-71
2020/12/16 00:19:09;;;;;;;57.40;32.65;;;8.60;99.90;;;;;;5029851;28;20064;-71
2020/12/16 00:21:36;;;;;;;59.35;31.50;;;8.60;99.90;;;;;;5062738;28;20162;-71
2020/12/16 00:24:02;;;;;;;68.65;33.63;;;8.60;99.90;;;;;;5063268;28;20055;-71
2020/12/16 00:26:29;;;;;;;68.45;34.08;;;8.50;99.90;;;;;;5054352;28;20465;-70
2020/12/16 00:28:55;;;;;;;53.13;29.88;;;8.60;99.90;;;;;;5063517;28;20092;-72
2020/12/16 00:31:21;;;;;;;52.05;29.23;;;8.50;99.90;;;;;;5045619;28;20043;-71
2020/12/16 00:33:47;;;;;;;59.72;32.40;;;8.50;99.90;;;;;;5046592;28;20049;-71
2020/12/16 00:36:14;;;;;;;74.60;33.20;;;8.30;99.90;;;;;;5045909;28;20056;-72
2020/12/16 00:38:41;;;;;;;81.07;33.80;;;8.40;99.90;;;;;;5063384;28;20048;-72
2020/12/16 00:41:07;;;;;;;78.07;33.88;;;8.50;99.90;;;;;;5045158;28;20074;-73
2020/12/16 00:43:34;;;;;;;87.30;36.17;;;8.40;99.90;;;;;;5029919;28;20693;-70
2020/12/16 00:46:01;;;;;;;93.45;34.22;;;8.30;99.90;;;;;;5078913;28;20080;-70
2020/12/16 00:48:27;;;;;;;79.68;35.25;;;8.20;99.90;;;;;;5046245;28;20048;-72
2020/12/16 00:50:54;;;;;;;72.60;35.65;;;8.20;99.90;;;;;;5045200;28;20048;-72
2020/12/16 00:53:20;;;;;;;88.72;36.85;;;8.20;99.90;;;;;;5045764;28;20131;-69
2020/12/16 00:55:51;;;;;;;67.68;32.97;;;8.20;99.90;;;;;;5044458;28;20416;-72
2020/12/16 00:58:19;;;;;;;108.43;38.17;;;8.10;99.90;;;;;;5026523;28;20064;-71
2020/12/16 01:00:50;;;;;;;81.70;33.20;;;8.20;99.90;;;;;;5044300;28;20130;-71
2020/12/16 01:03:20;;;;;;;67.70;31.10;;;8.30;99.90;;;;;;5061324;28;20581;-72
2020/12/16 01:05:46;;;;;;;69.38;32.50;;;8.30;99.90;;;;;;5065938;28;20125;-72
2020/12/16 01:08:13;;;;;;;73.40;32.30;;;8.40;99.90;;;;;;5049912;28;20481;-71
2020/12/16 01:10:42;;;;;;;75.47;33.30;;;8.40;99.90;;;;;;5049339;28;20542;-71
2020/12/16 01:13:08;;;;;;;92.63;34.78;;;8.40;99.90;;;;;;5049877;28;20052;-71
2020/12/16 01:15:36;;;;;;;94.00;36.17;;;8.40;99.90;;;;;;5065231;28;20139;-71
2020/12/16 01:18:05;;;;;;;76.68;33.90;;;8.30;99.90;;;;;;5065784;28;20084;-71
2020/12/16 01:20:36;;;;;;;84.28;34.42;;;8.30;99.90;;;;;;5066979;28;20508;-71
2020/12/16 01:23:17;;;;;;;80.00;33.05;;;8.20;99.90;;;;;;5066472;28;20117;-71
2020/12/16 01:25:43;;;;;;;128.45;37.60;;;8.20;99.90;;;;;;5048380;28;20137;-70
2020/12/16 01:28:10;;;;;;;148.13;39.30;;;8.20;99.90;;;;;;5055975;28;20052;-72
2020/12/16 01:30:45;;;;;;;132.85;36.80;;;8.00;99.90;;;;;;5081812;28;20053;-70
2020/12/16 01:33:13;;;;;;;89.68;34.42;;;8.00;99.90;;;;;;5065900;28;20052;-70
2020/12/16 01:35:42;;;;;;;112.47;35.65;;;8.10;99.90;;;;;;5048303;28;20124;-71
2020/12/16 01:38:10;;;;;;;96.95;34.92;;;8.20;99.90;;;;;;5048450;28;20067;-71
2020/12/16 01:40:41;;;;;;;106.25;37.92;;;8.00;99.90;;;;;;5048330;28;20050;-71
2020/12/16 01:43:07;;;;;;;114.05;36.55;;;8.00;99.90;;;;;;5049178;28;20106;-71
2020/12/16 01:45:33;;;;;;;116.35;36.95;;;8.00;99.90;;;;;;5048534;28;20076;-72
2020/12/16 01:47:59;;;;;;;142.20;40.47;;;8.10;99.90;;;;;;5048639;28;20532;-69
2020/12/16 01:50:26;;;;;;;105.05;36.72;;;7.90;99.90;;;;;;5066042;28;20040;-70
2020/12/16 01:52:59;;;;;;;109.72;37.45;;;7.80;99.90;;;;;;5064972;28;20141;-70
2020/12/16 01:55:44;;;;;;;181.52;43.08;;;7.80;99.90;;;;;;5047282;28;20123;-72
2020/12/16 01:58:21;;;;;;;126.65;38.88;;;7.80;99.90;;;;;;5036350;28;20141;-70
2020/12/16 02:00:51;;;;;;;87.32;32.45;;;8.00;99.90;;;;;;5063821;28;20064;-71
2020/12/16 02:03:21;;;;;;;92.20;35.30;;;7.90;99.90;;;;;;5063589;28;20056;-71
2020/12/16 02:05:58;;;;;;;110.55;36.20;;;8.00;99.90;;;;;;5049127;28;20076;-71
2020/12/16 02:08:28;;;;;;;119.88;39.72;;;7.90;99.90;;;;;;5047628;28;20501;-71
2020/12/16 02:10:57;;;;;;;99.95;35.78;;;7.80;99.90;;;;;;5045159;28;20049;-72
2020/12/16 02:13:27;;;;;;;102.60;36.35;;;7.80;99.90;;;;;;5045470;28;20100;-70
2020/12/16 02:15:57;;;;;;;104.32;33.97;;;7.80;99.90;;;;;;5062719;28;20087;-71
2020/12/16 02:18:25;;;;;;;92.75;32.65;;;7.90;99.90;;;;;;5064793;28;20060;-70
2020/12/16 02:21:02;;;;;;;87.07;32.33;;;7.90;99.90;;;;;;5064388;28;20044;-72
2020/12/16 02:23:44;;;;;;;138.43;37.75;;;7.90;99.90;;;;;;5065015;28;20757;-72
2020/12/16 02:26:11;;;;;;;103.68;33.95;;;7.90;99.90;;;;;;5038792;28;20045;-70
2020/12/16 02:28:37;;;;;;;110.15;35.45;;;8.00;99.90;;;;;;5031560;28;20075;-72
2020/12/16 02:31:04;;;;;;;107.55;34.63;;;8.00;99.90;;;;;;5063819;28;20480;-72
2020/12/16 02:33:54;;;;;;;103.97;34.17;;;8.00;99.90;;;;;;5058747;28;20056;-71
2020/12/16 02:36:29;;;;;;;118.65;33.95;;;8.00;99.90;;;;;;5059383;28;20056;-72
2020/12/16 02:39:03;;;;;;;107.78;32.83;;;7.80;99.90;;;;;;5072094;28;20440;-72
2020/12/16 02:42:04;;;;;;;138.07;35.15;;;7.90;99.90;;;;;;5041658;28;20061;-70
2020/12/16 02:44:32;;;;;;;123.22;34.17;;;7.90;99.90;;;;;;5074953;28;20072;-73
2020/12/16 02:47:13;;;;;;;182.40;40.30;;;7.90;99.90;;;;;;5063057;28;20060;-74
2020/12/16 02:49:41;;;;;;;131.13;36.17;;;7.80;99.90;;;;;;5077550;28;20084;-74
2020/12/16 02:52:08;;;;;;;142.88;36.10;;;7.70;99.90;;;;;;5045985;28;20283;-73
2020/12/16 02:54:35;;;;;;;160.63;36.65;;;7.60;99.90;;;;;;5064488;28;20481;-74
2020/12/16 02:57:07;;;;;;;123.53;34.83;;;7.70;99.90;;;;;;5021026;28;20439;-73
2020/12/16 02:59:37;;;;;;;150.38;37.05;;;7.60;99.90;;;;;;5058308;28;20049;-72
2020/12/16 03:02:35;;;;;;;136.77;34.65;;;7.60;99.90;;;;;;5064664;28;20048;-72
2020/12/16 03:05:19;;;;;;;138.10;38.33;;;7.50;99.90;;;;;;5063243;28;20451;-71
2020/12/16 03:07:45;;;;;;;133.57;36.60;;;7.50;99.90;;;;;;5046915;28;20520;-72
2020/12/16 03:10:12;;;;;;;126.28;34.67;;;7.60;99.90;;;;;;5046954;28;20052;-72
2020/12/16 03:12:38;;;;;;;127.65;34.80;;;7.60;99.90;;;;;;5047400;28;20060;-71
2020/12/16 03:15:05;;;;;;;118.60;33.17;;;7.60;99.90;;;;;;5063665;28;20049;-70
2020/12/16 03:17:31;;;;;;;382.40;44.63;;;7.60;99.90;;;;;;5063939;28;20139;-71
2020/12/16 03:20:03;;;;;;;354.13;43.95;;;7.60;99.90;;;;;;5062904;28;20056;-70
2020/12/16 03:22:32;;;;;;;341.63;43.42;;;7.30;99.90;;;;;;5063208;28;20135;-72
2020/12/16 03:25:19;;;;;;;415.45;54.20;;;7.20;99.90;;;;;;5042332;28;20041;-70
2020/12/16 03:28:15;;;;;;;456.70;55.38;;;6.90;99.90;;;;;;5036614;28;20063;-71
2020/12/16 03:30:48;;;;;;;501.10;56.78;;;6.70;99.90;;;;;;5062243;28;20053;-71
2020/12/16 03:33:23;;;;;;;;;;;6.70;99.90;;;;;;5032766;28;20048;-72
2020/12/16 03:36:13;;;;;;;332.05;44.78;;;6.70;99.90;;;;;;5062101;28;19920;-71
2020/12/16 03:38:41;;;;;;;264.95;41.72;;;6.60;99.90;;;;;;5063317;28;20456;-72
2020/12/16 03:41:07;;;;;;;269.27;42.58;;;6.50;99.90;;;;;;5043491;28;20110;-71
2020/12/16 03:43:38;;;;;;;280.60;45.45;;;6.50;99.90;;;;;;5026800;28;20402;-71
2020/12/16 03:46:09;;;;;;;181.35;44.35;;;6.30;99.90;;;;;;5051778;28;20056;-71
2020/12/16 03:48:38;;;;;;;341.95;51.03;;;6.30;99.90;;;;;;5030063;28;20063;-71
2020/12/16 03:51:07;;;;;;;512.53;57.70;;;6.20;99.90;;;;;;5029228;28;20048;-71
2020/12/16 03:53:37;;;;;;;425.83;50.00;;;6.10;99.90;;;;;;5031042;28;20417;-71
2020/12/16 03:56:22;;;;;;;450.33;55.33;;;6.10;99.90;;;;;;5047394;28;20045;-72
2020/12/16 03:59:15;;;;;;;495.77;55.17;;;5.90;99.90;;;;;;5039040;28;20056;-71
2020/12/16 04:02:00;;;;;;;;;;;5.80;99.90;;;;;;5064746;28;20297;-71
2020/12/16 04:04:28;;;;;;;390.65;49.75;;;5.90;99.90;;;;;;5046912;28;19925;-72
2020/12/16 04:07:03;;;;;;;523.95;55.63;;;5.80;99.90;;;;;;5061841;28;20048;-71
2020/12/16 04:09:35;;;;;;;402.92;44.45;;;5.70;99.90;;;;;;5062307;28;20585;-70
2020/12/16 04:12:03;;;;;;;309.33;40.05;;;5.60;99.90;;;;;;5029676;28;20580;-72
2020/12/16 04:14:33;;;;;;;358.77;42.85;;;5.50;99.90;;;;;;5030816;28;20505;-71
2020/12/16 04:17:03;;;;;;;359.67;42.35;;;5.50;99.90;;;;;;5046604;28;20045;-71
2020/12/16 04:19:55;;;;;;;330.95;42.33;;;5.40;99.90;;;;;;5045842;28;20048;-70
2020/12/16 04:22:22;;;;;;;554.90;59.05;;;5.40;99.90;;;;;;5029157;28;20511;-72
2020/12/16 04:24:58;;;;;;;261.58;35.08;;;5.30;99.90;;;;;;5063001;28;20126;-70
2020/12/16 04:27:29;;;;;;;308.27;40.75;;;5.30;99.90;;;;;;5052912;28;20182;-69
2020/12/16 04:29:56;;;;;;;422.23;45.22;;;5.30;99.90;;;;;;5062238;28;20068;-71
2020/12/16 04:32:24;;;;;;;396.55;40.40;;;5.20;99.90;;;;;;5062866;28;20481;-70
2020/12/16 04:34:50;;;;;;;419.00;46.00;;;5.20;99.90;;;;;;5063096;28;20064;-71
2020/12/16 04:37:17;;;;;;;442.35;49.40;;;5.20;99.90;;;;;;5028998;28;20725;-72
2020/12/16 04:39:50;;;;;;;436.88;48.28;;;5.20;99.90;;;;;;5065189;28;20055;-71
2020/12/16 04:42:18;;;;;;;427.33;48.42;;;4.90;99.90;;;;;;5049526;28;20056;-70
2020/12/16 04:44:44;;;;;;;462.25;50.45;;;4.90;99.90;;;;;;5049844;28;20521;-70
2020/12/16 04:47:16;;;;;;;357.33;46.13;;;4.80;99.90;;;;;;5066486;28;20048;-70
2020/12/16 04:49:51;;;;;;;274.08;33.10;;;4.70;99.90;;;;;;5051142;28;20052;-71
2020/12/16 04:52:22;;;;;;;277.77;32.40;;;4.50;99.90;;;;;;5065647;28;20244;-70
2020/12/16 04:55:07;;;;;;;181.10;27.80;;;4.40;99.90;;;;;;5064479;28;20079;-71
2020/12/16 04:57:51;;;;;;;203.05;34.10;;;4.40;99.90;;;;;;5044904;28;20144;-70
2020/12/16 05:00:22;;;;;;;174.85;32.67;;;4.60;99.90;;;;;;5050073;28;20052;-71
2020/12/16 05:03:18;;;;;;;207.60;35.08;;;4.60;99.90;;;;;;5052972;28;20147;-71
2020/12/16 05:05:55;;;;;;;160.40;35.33;;;4.70;99.90;;;;;;5047891;28;20133;-70
2020/12/16 05:08:23;;;;;;;225.27;41.33;;;4.80;99.90;;;;;;5067711;28;20049;-71
2020/12/16 05:10:50;;;;;;;267.23;45.50;;;4.80;99.90;;;;;;5066601;28;20109;-70
2020/12/16 05:13:21;;;;;;;342.88;52.92;;;4.90;99.90;;;;;;5066453;28;20128;-71
2020/12/16 05:15:49;;;;;;;300.85;45.33;;;5.00;99.90;;;;;;5056238;28;20740;-71
2020/12/16 05:18:23;;;;;;;195.40;34.92;;;4.90;99.90;;;;;;5056641;28;20080;-71
2020/12/16 05:20:54;;;;;;;210.13;36.77;;;4.80;99.90;;;;;;5065059;28;20048;-72
2020/12/16 05:23:26;;;;;;;154.90;34.83;;;4.50;99.90;;;;;;5065638;28;20131;-70
2020/12/16 05:26:04;;;;;;;113.90;30.98;;;4.50;99.90;;;;;;5064768;28;20654;-71
2020/12/16 05:28:36;;;;;;;284.85;52.97;;;4.40;99.90;;;;;;5057419;28;20061;-70
2020/12/16 05:31:08;;;;;;;318.77;53.35;;;4.40;99.90;;;;;;5065215;28;20602;-70
2020/12/16 05:33:42;;;;;;;181.30;41.80;;;4.50;99.90;;;;;;5067290;28;20057;-72
2020/12/16 05:36:10;;;;;;;293.10;47.15;;;4.60;99.90;;;;;;5043925;28;20053;-70
2020/12/16 05:38:50;;;;;;;161.32;32.42;;;4.40;99.90;;;;;;5046996;28;20061;-71
2020/12/16 05:41:23;;;;;;;118.47;32.13;;;4.30;99.90;;;;;;5045759;28;20049;-72
2020/12/16 05:43:50;;;;;;;92.55;29.23;;;4.20;99.90;;;;;;5046558;28;20139;-70
2020/12/16 05:46:25;;;;;;;93.10;30.35;;;4.20;99.90;;;;;;5064155;28;20048;-71
2020/12/16 05:48:52;;;;;;;83.30;29.52;;;4.10;99.90;;;;;;5048781;28;20049;-71
2020/12/16 05:51:18;;;;;;;119.25;35.38;;;4.10;99.90;;;;;;5065191;28;20044;-70
2020/12/16 05:53:44;;;;;;;101.88;33.47;;;4.20;99.90;;;;;;5065085;28;20453;-71
2020/12/16 05:56:13;;;;;;;73.95;28.90;;;4.30;99.90;;;;;;5062108;28;20537;-72
2020/12/16 05:58:40;;;;;;;383.92;65.93;;;4.30;99.90;;;;;;5031694;28;20507;-70
2020/12/16 06:01:06;;;;;;;183.32;42.85;;;4.30;99.90;;;;;;5064870;28;20060;-72
2020/12/16 06:03:38;;;;;;;173.38;42.63;;;4.30;99.90;;;;;;5065195;28;20055;-72
2020/12/16 06:06:09;;;;;;;154.10;37.42;;;4.40;99.90;;;;;;5062739;28;20146;-70
2020/12/16 06:08:41;;;;;;;234.73;47.55;;;4.40;99.90;;;;;;5047985;28;20048;-72
2020/12/16 06:11:09;;;;;;;410.88;67.22;;;4.50;99.90;;;;;;5065245;28;20052;-71
2020/12/16 06:13:36;;;;;;;462.27;71.78;;;4.60;99.90;;;;;;5064339;28;20051;-72
2020/12/16 06:16:07;;;;;;;293.70;56.53;;;4.60;99.90;;;;;;5062354;28;20409;-70
2020/12/16 06:18:39;;;;;;;300.63;54.35;;;4.70;99.90;;;;;;5061847;28;20128;-71
2020/12/16 06:21:07;;;;;;;139.90;40.33;;;4.80;99.90;;;;;;5063103;28;20041;-71
2020/12/16 06:23:39;;;;;;;292.02;59.30;;;4.80;99.90;;;;;;5047556;28;20159;-72
2020/12/16 06:26:19;;;;;;;136.35;43.72;;;4.90;99.90;;;;;;5056598;28;20252;-71
2020/12/16 06:28:46;;;;;;;183.18;49.40;;;4.90;99.90;;;;;;5041511;28;20491;-72
2020/12/16 06:31:30;;;;;;;211.20;53.80;;;5.10;99.90;;;;;;5046821;28;20072;-72
2020/12/16 06:34:00;;;;;;;233.88;52.25;;;5.20;99.90;;;;;;5080708;28;20135;-72
2020/12/16 06:36:39;;;;;;;237.07;55.00;;;5.20;99.90;;;;;;5046525;28;20144;-72
2020/12/16 06:39:17;;;;;;;261.15;56.42;;;5.40;99.90;;;;;;5064140;28;20041;-71
2020/12/16 06:41:57;;;;;;;298.58;63.55;;;5.50;99.90;;;;;;5063600;28;20048;-71
2020/12/16 06:44:25;;;;;;;195.43;44.63;;;5.50;99.90;;;;;;5063684;28;20056;-71
2020/12/16 06:46:55;;;;;;;301.92;61.05;;;5.50;99.90;;;;;;5055141;28;20062;-71
2020/12/16 06:49:27;;;;;;;385.73;71.88;;;5.50;99.90;;;;;;5043366;28;20053;-71
2020/12/16 06:51:59;;;;;;;342.73;66.70;;;5.60;99.90;;;;;;5043514;28;20191;-71
2020/12/16 06:54:34;;;;;;;234.48;45.97;;;5.50;99.90;;;;;;5054329;28;20052;-70
2020/12/16 06:57:15;;;;;;;221.43;50.45;;;5.60;99.90;;;;;;5055706;28;20048;-72
2020/12/16 06:59:49;;;;;;;288.75;58.90;;;5.60;99.90;;;;;;5044724;28;20126;-72
2020/12/16 07:02:24;;;;;;;179.00;44.50;;;5.70;99.90;;;;;;5062845;28;20612;-71
2020/12/16 07:04:51;;;;;;;218.50;50.67;;;5.80;99.90;;;;;;5046778;28;20135;-72
2020/12/16 07:07:44;;;;;;;230.52;52.08;;;5.90;99.90;;;;;;5064785;28;20097;-72
2020/12/16 07:10:36;;;;;;;166.35;44.13;;;6.00;99.90;;;;;;5063725;28;20052;-72
2020/12/16 07:13:10;;;;;;;146.15;40.15;;;6.10;99.90;;;;;;5062607;28;20049;-72
2020/12/16 07:15:59;;;;;;;147.98;39.53;;;6.10;99.90;;;;;;5044756;28;20116;-70
2020/12/16 07:18:28;;;;;;;178.10;44.38;;;6.10;99.90;;;;;;5051069;28;20144;-70
2020/12/16 07:21:19;;;;;;;161.65;40.38;;;6.20;99.90;;;;;;5038747;28;20048;-71
2020/12/16 07:23:52;;;;;;;179.85;42.38;;;6.20;99.90;;;;;;5041250;28;20437;-71
2020/12/16 07:26:27;;;;;;;172.23;42.15;;;6.30;99.90;;;;;;5060406;28;20051;-70
2020/12/16 07:28:55;;;;;;;131.93;37.35;;;6.30;99.90;;;;;;5046111;28;20071;-70
2020/12/16 07:31:23;;;;;;;172.23;45.10;;;6.30;99.90;;;;;;5062186;28;20092;-71
2020/12/16 07:33:50;;;;;;;144.32;42.53;;;6.40;99.90;;;;;;5063559;28;20048;-72
2020/12/16 07:36:17;;;;;;;132.95;40.05;;;6.40;99.90;;;;;;5061361;28;20083;-74
2020/12/16 07:38:54;;;;;;;122.28;38.22;;;6.50;99.90;;;;;;5064412;28;20056;-75
2020/12/16 07:41:29;;;;;;;146.35;41.78;;;6.50;99.90;;;;;;5058117;28;20061;-74
2020/12/16 07:43:58;;;;;;;112.97;35.78;;;6.60;99.90;;;;;;5053875;28;20049;-75
2020/12/16 07:46:26;;;;;;;118.47;40.53;;;6.60;99.90;;;;;;5063137;28;20139;-75
2020/12/16 07:48:53;;;;;;;107.13;37.35;;;6.60;99.90;;;;;;5063809;28;20041;-72
2020/12/16 07:51:20;;;;;;;123.72;37.75;;;6.50;99.90;;;;;;5062205;28;20044;-70
2020/12/16 07:53:50;;;;;;;109.97;36.10;;;6.50;99.90;;;;;;5046664;28;20052;-71
2020/12/16 07:56:19;;;;;;;114.80;35.95;;;6.60;99.90;;;;;;5037229;28;20076;-72
2020/12/16 07:58:46;;;;;;;103.72;36.67;;;6.60;99.90;;;;;;5063411;28;20057;-72
2020/12/16 08:01:15;;;;;;;109.85;37.08;;;6.60;99.90;;;;;;5058895;28;20102;-72
2020/12/16 08:03:42;;;;;;;89.47;33.33;;;6.60;99.90;;;;;;5054933;28;20484;-70
2020/12/16 08:06:10;;;;;;;85.63;32.10;;;6.70;99.90;;;;;;5061965;28;20052;-71
2020/12/16 08:08:46;;;;;;;85.70;31.20;;;6.60;99.90;;;;;;5029747;28;20049;-71
2020/12/16 08:11:17;;;;;;;93.80;32.33;;;6.70;99.90;;;;;;5061745;28;20056;-71
2020/12/16 08:13:46;;;;;;;90.70;33.85;;;6.70;99.90;;;;;;5061694;28;20525;-70
2020/12/16 08:16:13;;;;;;;77.60;29.98;;;6.70;99.90;;;;;;5045685;28;20083;-71
2020/12/16 08:18:47;;;;;;;91.85;36.08;;;6.80;99.90;;;;;;5063223;28;20040;-72
2020/12/16 08:21:18;;;;;;;94.70;34.70;;;6.90;99.90;;;;;;5035344;28;20037;-73
2020/12/16 08:23:45;;;;;;;86.10;31.63;;;6.90;99.90;;;;;;5062992;28;20048;-73
2020/12/16 08:26:12;;;;;;;94.22;30.55;;;6.80;99.90;;;;;;5053193;28;20083;-72
2020/12/16 08:28:38;;;;;;;97.45;35.05;;;6.80;99.90;;;;;;5055972;28;20045;-73
2020/12/16 08:31:05;;;;;;;93.95;34.92;;;6.80;99.90;;;;;;5060225;28;20040;-72
2020/12/16 08:33:32;;;;;;;98.25;34.92;;;6.90;99.90;;;;;;5046586;28;20041;-74
2020/12/16 08:36:09;;;;;;;104.70;36.92;;;6.90;99.90;;;;;;5063025;28;20060;-74
2020/12/16 08:38:43;;;;;;;107.95;35.90;;;6.90;99.90;;;;;;5062471;28;20069;-73
2020/12/16 08:41:12;;;;;;;103.70;34.65;;;7.00;99.90;;;;;;5078929;28;20069;-72
2020/12/16 08:43:42;;;;;;;91.32;32.72;;;6.90;99.90;;;;;;5045280;28;20045;-73
2020/12/16 08:46:19;;;;;;;87.32;28.33;;;6.90;99.90;;;;;;5045787;28;20075;-73
2020/12/16 08:49:00;;;;;;;109.82;35.97;;;6.90;99.90;;;;;;5046278;28;20048;-73
2020/12/16 08:51:33;;;;;;;116.97;35.90;;;6.90;99.90;;;;;;5045229;28;20048;-72
2020/12/16 08:54:02;;;;;;;115.75;35.50;;;6.80;99.90;;;;;;5062143;28;20197;-73
2020/12/16 08:56:37;;;;;;;135.65;39.60;;;6.80;99.90;;;;;;5039897;28;20065;-72
2020/12/16 08:59:15;;;;;;;115.15;35.40;;;6.80;99.90;;;;;;5033580;28;20072;-74
2020/12/16 09:01:46;;;;;;;123.43;35.45;;;6.90;99.90;;;;;;5043704;28;20152;-73
2020/12/16 09:04:23;;;;;;;108.55;32.78;;;6.90;99.90;;;;;;5046000;28;20512;-75
2020/12/16 09:07:13;;;;;;;98.50;31.02;;;6.90;99.90;;;;;;5061518;28;20070;-74
2020/12/16 09:09:51;;;;;;;93.13;32.08;;;6.90;99.90;;;;;;5045201;28;20059;-74
2020/12/16 09:12:20;;;;;;;104.82;34.40;;;6.90;99.90;;;;;;5062167;28;20055;-74
2020/12/16 09:14:58;;;;;;;91.47;32.90;;;6.90;99.90;;;;;;5061963;28;20066;-75
2020/12/16 09:17:26;;;;;;;96.10;32.75;;;7.00;99.90;;;;;;5061382;28;20052;-73
2020/12/16 09:19:53;;;;;;;100.78;31.02;;;7.00;99.90;;;;;;5061598;28;20135;-75
2020/12/16 09:22:22;;;;;;;96.55;32.95;;;7.10;99.90;;;;;;5063064;28;20061;-74
2020/12/16 09:24:48;;;;;;;92.47;28.88;;;7.10;99.90;;;;;;5062538;28;20141;-74
2020/12/16 09:27:15;;;;;;;94.28;28.08;;;7.00;99.90;;;;;;5056435;28;20055;-74
2020/12/16 09:29:48;;;;;;;108.47;36.20;;;7.10;99.90;;;;;;5083049;28;20131;-75
2020/12/16 09:32:16;;;;;;;81.63;30.55;;;7.10;99.90;;;;;;5081715;28;20060;-74
2020/12/16 09:34:44;;;;;;;97.22;34.35;;;7.10;99.90;;;;;;5046293;28;20072;-74
2020/12/16 09:37:12;;;;;;;82.18;30.63;;;7.20;99.90;;;;;;5039596;28;20059;-75
2020/12/16 09:39:38;;;;;;;79.63;29.02;;;7.20;99.90;;;;;;5048814;28;20036;-73
2020/12/16 09:42:23;;;;;;;86.95;31.95;;;7.10;99.90;;;;;;5031721;28;20040;-73
2020/12/16 09:44:49;;;;;;;78.38;32.33;;;7.10;99.90;;;;;;5065653;28;20068;-74
2020/12/16 09:47:21;;;;;;;81.97;30.67;;;7.30;99.90;;;;;;5064472;28;20054;-74
2020/12/16 09:50:07;;;;;;;76.40;31.67;;;7.20;99.90;;;;;;5065570;28;20063;-74
2020/12/16 09:52:35;;;;;;;82.13;30.27;;;7.30;99.90;;;;;;5031850;28;20147;-73
2020/12/16 09:55:21;;;;;;;77.22;31.15;;;7.30;99.90;;;;;;5057856;28;20048;-74
2020/12/16 09:57:57;;;;;;;;;;;7.30;99.90;;;;;;5055337;28;20053;-73
2020/12/16 10:00:23;;;;;;;;;;;7.30;99.90;;;;;;5024448;28;20289;-74
2020/12/16 10:03:00;;;;;;;68.68;28.63;;;7.30;99.90;;;;;;5065726;28;19926;-74
2020/12/16 10:05:27;;;;;;;62.70;26.23;;;7.40;99.90;;;;;;5041372;28;20055;-73
2020/12/16 10:07:53;;;;;;;47.00;20.08;;;7.40;99.90;;;;;;5066408;28;20053;-73
2020/12/16 10:10:21;;;;;;;52.47;23.63;;;7.40;99.90;;;;;;5080807;28;20048;-73
2020/12/16 10:12:48;;;;;;;58.83;25.85;;;7.40;99.90;;;;;;5065060;28;20033;-74
2020/12/16 10:15:14;;;;;;;49.65;24.38;;;7.40;99.90;;;;;;5047807;28;20148;-73
2020/12/16 10:17:41;;;;;;;58.25;23.38;;;7.40;99.90;;;;;;5047588;28;20402;-73
2020/12/16 10:20:07;;;;;;;46.00;21.42;;;7.40;99.90;;;;;;5052039;28;20076;-73
2020/12/16 10:22:34;;;;;;;47.58;22.75;;;7.30;99.90;;;;;;5066347;28;20063;-74
2020/12/16 10:25:00;;;;;;;46.80;21.35;;;7.50;99.90;;;;;;5058575;28;20510;-74
2020/12/16 10:27:28;;;;;;;52.95;23.77;;;7.50;99.90;;;;;;5059338;28;20040;-73
2020/12/16 10:29:56;;;;;;;42.67;21.67;;;7.50;99.90;;;;;;5055363;28;20578;-73
2020/12/16 10:32:23;;;;;;;50.08;23.13;;;7.70;99.90;;;;;;5064628;28;20127;-73
2020/12/16 10:34:56;;;;;;;44.35;23.38;;;7.80;99.90;;;;;;5058620;28;20106;-73
2020/12/16 10:37:23;;;;;;;42.55;20.80;;;7.80;99.90;;;;;;5054541;28;20041;-73
2020/12/16 10:39:50;;;;;;;44.90;22.38;;;7.80;99.90;;;;;;5027515;28;20059;-73
2020/12/16 10:42:17;;;;;;;37.92;20.33;;;7.90;99.90;;;;;;5018990;28;20068;-73
2020/12/16 10:44:43;;;;;;;32.53;19.15;;;7.90;99.90;;;;;;5042220;28;20060;-73
2020/12/16 10:47:10;;;;;;;37.75;19.52;;;7.90;99.90;;;;;;5026467;28;20048;-73
2020/12/16 10:49:37;;;;;;;40.78;20.75;;;7.80;99.90;;;;;;5055476;28;20086;-75
2020/12/16 10:52:14;;;;;;;37.95;20.27;;;8.00;99.90;;;;;;5046687;28;20532;-74
2020/12/16 10:54:41;;;;;;;39.03;20.48;;;7.90;99.90;;;;;;5061282;28;20060;-73
2020/12/16 10:57:08;;;;;;;36.25;20.50;;;7.90;99.90;;;;;;5075180;28;20040;-73
2020/12/16 10:59:35;;;;;;;39.03;19.65;;;8.00;99.90;;;;;;5032961;28;20045;-73
2020/12/16 11:02:10;;;;;;;41.30;21.33;;;8.10;99.90;;;;;;5064478;28;20044;-75
2020/12/16 11:04:36;;;;;;;36.55;18.95;;;8.20;99.90;;;;;;5063483;28;20051;-74
2020/12/16 11:07:05;;;;;;;36.13;20.80;;;8.10;99.90;;;;;;5064676;28;20679;-74
2020/12/16 11:09:32;;;;;;;39.97;19.73;;;8.10;99.90;;;;;;5065375;28;20564;-73
2020/12/16 11:11:59;;;;;;;29.92;19.27;;;8.20;99.90;;;;;;5063081;28;20472;-74
2020/12/16 11:14:26;;;;;;;32.67;19.40;;;8.20;99.90;;;;;;5030391;28;20059;-73
2020/12/16 11:16:54;;;;;;;28.80;19.58;;;8.30;99.90;;;;;;5063019;28;20037;-73
2020/12/16 11:19:22;;;;;;;29.13;19.13;;;8.30;99.90;;;;;;5063857;28;20166;-73
2020/12/16 11:21:52;;;;;;;33.00;20.77;;;8.40;99.90;;;;;;5062515;28;20127;-72
2020/12/16 11:24:21;;;;;;;25.95;17.88;;;8.50;99.90;;;;;;5031572;28;20040;-73
2020/12/16 11:26:50;;;;;;;28.85;19.67;;;8.50;99.90;;;;;;5059201;28;20166;-73
2020/12/16 11:29:22;;;;;;;27.08;19.08;;;8.60;99.90;;;;;;5055047;28;20041;-72
2020/12/16 11:31:57;;;;;;;26.67;18.77;;;8.70;99.90;;;;;;5045996;28;20060;-73
2020/12/16 11:34:29;;;;;;;26.40;17.10;;;8.70;99.90;;;;;;5063764;28;20559;-73
2020/12/16 11:36:57;;;;;;;26.10;18.70;;;8.60;99.90;;;;;;5079679;28;20636;-72
2020/12/16 11:39:25;;;;;;;23.45;16.25;;;8.60;99.90;;;;;;5061606;28;20064;-73
2020/12/16 11:41:53;;;;;;;22.73;14.88;;;8.60;99.90;;;;;;5058788;28;20063;-73
2020/12/16 11:44:21;;;;;;;24.73;18.58;;;8.50;99.90;;;;;;5052514;28;20055;-73
2020/12/16 11:46:48;;;;;;;26.33;18.55;;;8.50;99.90;;;;;;5052761;28;20337;-74
2020/12/16 11:49:22;;;;;;;21.83;16.48;;;8.60;99.90;;;;;;5063758;28;20052;-73
2020/12/16 11:51:49;;;;;;;21.05;16.02;;;8.60;99.90;;;;;;5062197;28;20055;-73
2020/12/16 11:54:16;;;;;;;17.60;15.40;;;8.70;99.90;;;;;;5061579;28;20149;-73
2020/12/16 11:56:43;;;;;;;19.15;15.55;;;8.80;99.90;;;;;;5058945;28;20082;-74
2020/12/16 11:59:27;;;;;;;21.42;16.80;;;8.80;99.90;;;;;;5033861;28;20341;-75
2020/12/16 12:01:58;;;;;;;23.30;18.13;;;8.90;99.90;;;;;;5024663;28;20424;-74
2020/12/16 12:04:26;;;;;;;21.52;17.65;;;8.90;99.90;;;;;;5042641;28;20053;-73
2020/12/16 12:06:52;;;;;;;23.75;18.73;;;8.90;99.90;;;;;;5043435;28;20059;-74
2020/12/16 12:09:24;;;;;;;22.00;16.67;;;8.90;99.90;;;;;;5027682;28;20052;-73
2020/12/16 12:11:53;;;;;;;23.83;18.10;;;8.90;99.90;;;;;;5042074;28;20045;-74
2020/12/16 12:14:20;;;;;;;25.15;19.63;;;8.80;99.90;;;;;;5044278;28;20797;-74
2020/12/16 12:16:48;;;;;;;27.70;20.05;;;8.90;99.90;;;;;;5042057;28;20102;-75
2020/12/16 12:19:15;;;;;;;26.00;19.13;;;9.00;99.90;;;;;;5058102;28;20049;-74
2020/12/16 12:21:42;;;;;;;25.00;19.20;;;9.00;99.90;;;;;;5041931;28;20144;-73
2020/12/16 12:24:08;;;;;;;24.45;17.88;;;8.90;99.90;;;;;;5048452;28;20037;-73
2020/12/16 12:26:35;;;;;;;23.70;19.15;;;8.90;99.90;;;;;;5055261;28;20531;-74
2020/12/16 12:29:01;;;;;;;25.48;18.48;;;8.90;99.90;;;;;;5048252;28;20057;-74
2020/12/16 12:31:27;;;;;;;25.05;19.38;;;9.00;99.90;;;;;;5072860;28;20526;-73
2020/12/16 12:33:54;;;;;;;27.88;21.88;;;9.00;99.90;;;;;;5082239;28;20113;-73
2020/12/16 12:36:21;;;;;;;30.83;23.25;;;8.90;99.90;;;;;;5081176;28;20291;-73
2020/12/16 12:38:51;;;;;;;28.48;22.00;;;8.80;99.90;;;;;;5082696;28;20113;-73
2020/12/16 12:41:17;;;;;;;29.65;21.42;;;9.00;99.90;;;;;;5081974;28;20040;-74
2020/12/16 12:43:43;;;;;;;27.38;21.35;;;9.00;99.90;;;;;;5066872;28;20052;-74
2020/12/16 12:46:10;;;;;;;32.08;23.08;;;9.00;99.90;;;;;;5061387;28;20055;-73
2020/12/16 12:48:37;;;;;;;30.70;22.45;;;9.00;99.90;;;;;;5061535;28;20113;-73
2020/12/16 12:51:04;;;;;;;30.83;23.30;;;9.10;99.90;;;;;;5062191;28;20052;-72
2020/12/16 12:53:53;;;;;;;30.25;24.00;;;9.10;99.90;;;;;;5063630;28;20062;-73